Cedar Valley, Utah
Current Conditions -  °F | °C
As of 12:52 PM on Friday 28 Nov 2014 (Local Time) from KPVU Reporting Station
Broken Clouds Broken Clouds  
Wind Chill: 52°   Ceiling: 16000
Heat Index: 52°   Visibility: 15mi
Dew Point: 30°   Wind: 0mph
Humidity: 44%   Direction: NA
Pressure: 29.99"   Gusts: NA
Location:  40.29°N, 112.07°W
Report Text: KPVU 281952Z 00000KT 15SM BKN160 11/M01 A2999
Loading
Personal Weather Stations






























Interactive Weather Map New forecast layout! Learn more

10-Day Weather Forecast

Advertisements
Track Severe Weather on mobile